sensor_id;sensor_type;location;lat;lon;timestamp;pressure;altitude;pressure_sealevel;temperature;humidity
77023;BME280;65952;51.440;-2.054;2023-03-03T00:00:26;101492.94;;;2.33;72.34
77023;BME280;65952;51.440;-2.054;2023-03-03T00:02:51;101496.38;;;2.35;72.30
77023;BME280;65952;51.440;-2.054;2023-03-03T00:05:17;101493.09;;;2.46;72.20
77023;BME280;65952;51.440;-2.054;2023-03-03T00:07:43;101487.28;;;2.55;71.90
77023;BME280;65952;51.440;-2.054;2023-03-03T00:10:10;101483.31;;;2.63;71.85
77023;BME280;65952;51.440;-2.054;2023-03-03T00:12:45;101479.94;;;2.60;71.91
77023;BME280;65952;51.440;-2.054;2023-03-03T00:15:20;101487.69;;;2.64;71.71
77023;BME280;65952;51.440;-2.054;2023-03-03T00:17:46;101490.69;;;2.57;72.20
77023;BME280;65952;51.440;-2.054;2023-03-03T00:23:03;101489.09;;;2.85;71.06
77023;BME280;65952;51.440;-2.054;2023-03-03T00:25:33;101487.13;;;2.89;70.91
77023;BME280;65952;51.440;-2.054;2023-03-03T00:29:01;101491.59;;;2.88;70.73
77023;BME280;65952;51.440;-2.054;2023-03-03T00:31:15;101486.38;;;2.87;70.66
77023;BME280;65952;51.440;-2.054;2023-03-03T00:33:52;101493.66;;;2.83;71.02
77023;BME280;65952;51.440;-2.054;2023-03-03T00:36:37;101487.56;;;2.81;71.17
77023;BME280;65952;51.440;-2.054;2023-03-03T00:41:47;101491.16;;;2.80;71.28
77023;BME280;65952;51.440;-2.054;2023-03-03T00:44:36;101498.19;;;2.81;71.31
77023;BME280;65952;51.440;-2.054;2023-03-03T00:52:39;101488.41;;;2.82;71.38
77023;BME280;65952;51.440;-2.054;2023-03-03T00:55:10;101492.09;;;2.79;71.60
77023;BME280;65952;51.440;-2.054;2023-03-03T00:57:35;101494.75;;;2.79;71.52
77023;BME280;65952;51.440;-2.054;2023-03-03T01:00:01;101494.09;;;2.75;72.00
77023;BME280;65952;51.440;-2.054;2023-03-03T01:02:26;101493.22;;;2.75;71.93
77023;BME280;65952;51.440;-2.054;2023-03-03T01:04:52;101495.44;;;2.83;71.82
77023;BME280;65952;51.440;-2.054;2023-03-03T01:07:20;101498.63;;;2.89;71.66
77023;BME280;65952;51.440;-2.054;2023-03-03T01:09:46;101505.53;;;2.92;71.72
77023;BME280;65952;51.440;-2.054;2023-03-03T01:12:11;101503.81;;;2.91;71.80
77023;BME280;65952;51.440;-2.054;2023-03-03T01:14:38;101506.81;;;3.01;71.62
77023;BME280;65952;51.440;-2.054;2023-03-03T01:17:04;101503.78;;;3.07;71.49
77023;BME280;65952;51.440;-2.054;2023-03-03T01:19:30;101509.09;;;3.07;71.60
77023;BME280;65952;51.440;-2.054;2023-03-03T01:21:56;101505.56;;;3.06;71.79
77023;BME280;65952;51.440;-2.054;2023-03-03T01:24:22;101501.53;;;3.15;71.71
77023;BME280;65952;51.440;-2.054;2023-03-03T01:26:48;101505.88;;;3.16;71.51
77023;BME280;65952;51.440;-2.054;2023-03-03T01:29:13;101513.66;;;3.19;71.47
77023;BME280;65952;51.440;-2.054;2023-03-03T01:31:39;101509.38;;;3.17;71.55
77023;BME280;65952;51.440;-2.054;2023-03-03T01:34:05;101509.38;;;3.17;71.55
77023;BME280;65952;51.440;-2.054;2023-03-03T01:36:32;101509.91;;;3.23;71.46
77023;BME280;65952;51.440;-2.054;2023-03-03T01:38:58;101517.88;;;3.23;71.68
77023;BME280;65952;51.440;-2.054;2023-03-03T01:41:27;101510.84;;;3.22;71.54
77023;BME280;65952;51.440;-2.054;2023-03-03T01:43:54;101519.63;;;3.23;71.69
77023;BME280;65952;51.440;-2.054;2023-03-03T01:49:35;101520.16;;;3.30;71.62
77023;BME280;65952;51.440;-2.054;2023-03-03T01:52:09;101515.69;;;3.30;71.71
77023;BME280;65952;51.440;-2.054;2023-03-03T01:54:41;101524.22;;;3.35;71.45
77023;BME280;65952;51.440;-2.054;2023-03-03T01:57:12;101527.81;;;3.34;71.59
77023;BME280;65952;51.440;-2.054;2023-03-03T01:59:44;101526.63;;;3.40;71.51
77023;BME280;65952;51.440;-2.054;2023-03-03T02:02:12;101524.72;;;3.42;71.52
77023;BME280;65952;51.440;-2.054;2023-03-03T02:04:38;101525.78;;;3.54;71.19
77023;BME280;65952;51.440;-2.054;2023-03-03T02:07:08;101525.59;;;3.57;71.10
77023;BME280;65952;51.440;-2.054;2023-03-03T02:12:39;101527.97;;;3.62;71.31
77023;BME280;65952;51.440;-2.054;2023-03-03T02:15:23;101535.09;;;3.61;71.19
77023;BME280;65952;51.440;-2.054;2023-03-03T02:17:52;101524.66;;;3.58;71.45
77023;BME280;65952;51.440;-2.054;2023-03-03T02:23:17;101522.66;;;3.62;71.13
77023;BME280;65952;51.440;-2.054;2023-03-03T02:28:27;101524.56;;;3.74;70.57
77023;BME280;65952;51.440;-2.054;2023-03-03T02:30:55;101529.22;;;3.70;70.59
77023;BME280;65952;51.440;-2.054;2023-03-03T02:33:21;101523.44;;;3.78;70.39
77023;BME280;65952;51.440;-2.054;2023-03-03T02:35:47;101526.97;;;3.79;70.86
77023;BME280;65952;51.440;-2.054;2023-03-03T02:38:24;101529.78;;;3.76;70.63
77023;BME280;65952;51.440;-2.054;2023-03-03T02:41:12;101523.63;;;3.75;70.79
77023;BME280;65952;51.440;-2.054;2023-03-03T02:43:55;101521.44;;;3.67;71.12
77023;BME280;65952;51.440;-2.054;2023-03-03T02:46:23;101526.88;;;3.80;70.58
77023;BME280;65952;51.440;-2.054;2023-03-03T02:48:48;101527.53;;;3.84;70.80
77023;BME280;65952;51.440;-2.054;2023-03-03T02:51:14;101526.97;;;3.79;70.86
77023;BME280;65952;51.440;-2.054;2023-03-03T02:53:40;101527.69;;;3.81;71.05
77023;BME280;65952;51.440;-2.054;2023-03-03T02:56:06;101527.44;;;3.85;71.12
77023;BME280;65952;51.440;-2.054;2023-03-03T02:58:34;101519.63;;;3.82;70.90
77023;BME280;65952;51.440;-2.054;2023-03-03T03:00:59;101519.63;;;3.82;71.29
77023;BME280;65952;51.440;-2.054;2023-03-03T03:03:24;101522.69;;;3.76;71.32
77023;BME280;65952;51.440;-2.054;2023-03-03T03:05:50;101516.41;;;3.77;71.38
77023;BME280;65952;51.440;-2.054;2023-03-03T03:08:15;101517.19;;;3.79;71.30
77023;BME280;65952;51.440;-2.054;2023-03-03T03:10:40;101512.06;;;3.76;71.33
77023;BME280;65952;51.440;-2.054;2023-03-03T03:13:06;101519.06;;;3.77;71.33
77023;BME280;65952;51.440;-2.054;2023-03-03T03:15:31;101519.84;;;3.79;71.51
77023;BME280;65952;51.440;-2.054;2023-03-03T03:17:56;101521.72;;;3.77;71.24
77023;BME280;65952;51.440;-2.054;2023-03-03T03:20:22;101519.94;;;3.78;71.56
77023;BME280;65952;51.440;-2.054;2023-03-03T03:22:47;101519.94;;;3.78;71.60
77023;BME280;65952;51.440;-2.054;2023-03-03T03:25:13;101523.25;;;3.81;71.76
77023;BME280;65952;51.440;-2.054;2023-03-03T03:27:38;101515.94;;;3.85;71.79
77023;BME280;65952;51.440;-2.054;2023-03-03T03:30:04;101521.56;;;3.80;71.85
77023;BME280;65952;51.440;-2.054;2023-03-03T03:32:29;101523.34;;;3.80;72.25
77023;BME280;65952;51.440;-2.054;2023-03-03T03:34:54;101521.56;;;3.80;72.12
77023;BME280;65952;51.440;-2.054;2023-03-03T03:37:20;101516.97;;;3.82;72.17
77023;BME280;65952;51.440;-2.054;2023-03-03T03:39:45;101512.06;;;3.76;71.57
77023;BME280;65952;51.440;-2.054;2023-03-03T03:42:11;101514.72;;;3.76;71.62
77023;BME280;65952;51.440;-2.054;2023-03-03T03:44:36;101514.72;;;3.76;71.26
77023;BME280;65952;51.440;-2.054;2023-03-03T03:47:02;101519.00;;;3.79;71.00
77023;BME280;65952;51.440;-2.054;2023-03-03T03:49:27;101514.53;;;3.79;71.33
77023;BME280;65952;51.440;-2.054;2023-03-03T03:51:52;101515.28;;;3.81;71.21
77023;BME280;65952;51.440;-2.054;2023-03-03T03:54:18;101509.97;;;3.81;71.00
77023;BME280;65952;51.440;-2.054;2023-03-03T03:56:43;101512.06;;;3.76;70.95
77023;BME280;65952;51.440;-2.054;2023-03-03T03:59:08;101511.09;;;3.77;71.06
77023;BME280;65952;51.440;-2.054;2023-03-03T04:01:34;101502.00;;;3.81;70.47
77023;BME280;65952;51.440;-2.054;2023-03-03T04:03:59;101517.66;;;3.86;70.41
77023;BME280;65952;51.440;-2.054;2023-03-03T04:06:24;101517.47;;;3.89;70.29
77023;BME280;65952;51.440;-2.054;2023-03-03T04:08:50;101516.03;;;3.69;70.52
77023;BME280;65952;51.440;-2.054;2023-03-03T04:11:15;101514.63;;;3.78;70.60
77023;BME280;65952;51.440;-2.054;2023-03-03T04:13:41;101510.63;;;3.85;70.38
77023;BME280;65952;51.440;-2.054;2023-03-03T04:16:07;101516.59;;;3.88;70.36
77023;BME280;65952;51.440;-2.054;2023-03-03T04:18:32;101508.06;;;3.83;70.49
77023;BME280;65952;51.440;-2.054;2023-03-03T04:20:58;101502.38;;;3.89;70.09
77023;BME280;65952;51.440;-2.054;2023-03-03T04:23:23;101507.59;;;3.91;70.30
77023;BME280;65952;51.440;-2.054;2023-03-03T04:25:48;101509.41;;;3.90;70.23
77023;BME280;65952;51.440;-2.054;2023-03-03T04:28:15;101509.41;;;3.90;70.21
77023;BME280;65952;51.440;-2.054;2023-03-03T04:30:42;101515.38;;;3.94;69.93
77023;BME280;65952;51.440;-2.054;2023-03-03T04:33:07;101515.75;;;3.88;70.45
77023;BME280;65952;51.440;-2.054;2023-03-03T04:35:33;101509.19;;;3.94;70.40
77023;BME280;65952;51.440;-2.054;2023-03-03T04:37:58;101507.31;;;3.96;70.16
77023;BME280;65952;51.440;-2.054;2023-03-03T04:40:23;101510.25;;;3.91;70.05
77023;BME280;65952;51.440;-2.054;2023-03-03T04:42:49;101501.44;;;3.90;69.87
77023;BME280;65952;51.440;-2.054;2023-03-03T04:45:15;101509.50;;;3.89;69.77
77023;BME280;65952;51.440;-2.054;2023-03-03T04:47:40;101502.09;;;3.94;69.89
77023;BME280;65952;51.440;-2.054;2023-03-03T04:50:06;101510.81;;;3.82;70.12
77023;BME280;65952;51.440;-2.054;2023-03-03T04:52:32;101509.78;;;3.84;70.11
77023;BME280;65952;51.440;-2.054;2023-03-03T04:54:58;101508.72;;;3.87;70.22
77023;BME280;65952;51.440;-2.054;2023-03-03T04:57:23;101506.06;;;3.87;70.03
77023;BME280;65952;51.440;-2.054;2023-03-03T04:59:49;101508.72;;;3.87;69.94
77023;BME280;65952;51.440;-2.054;2023-03-03T05:02:14;101509.41;;;3.90;69.88
77023;BME280;65952;51.440;-2.054;2023-03-03T05:04:39;101516.31;;;3.93;69.74
77023;BME280;65952;51.440;-2.054;2023-03-03T05:07:05;101513.94;;;3.88;69.97
77023;BME280;65952;51.440;-2.054;2023-03-03T05:09:30;101514.91;;;3.87;69.90
77023;BME280;65952;51.440;-2.054;2023-03-03T05:11:56;101526.13;;;3.93;69.86
77023;BME280;65952;51.440;-2.054;2023-03-03T05:14:21;101524.28;;;3.93;69.99
77023;BME280;65952;51.440;-2.054;2023-03-03T05:16:47;101526.28;;;3.89;69.85
77023;BME280;65952;51.440;-2.054;2023-03-03T05:19:12;101523.16;;;3.83;69.97
77023;BME280;65952;51.440;-2.054;2023-03-03T05:21:38;101527.34;;;3.72;69.48
77023;BME280;65952;51.440;-2.054;2023-03-03T05:24:09;101515.47;;;3.78;69.50
77023;BME280;65952;51.440;-2.054;2023-03-03T05:26:35;101523.84;;;3.86;69.69
77023;BME280;65952;51.440;-2.054;2023-03-03T05:29:00;101531.03;;;3.84;69.89
77023;BME280;65952;51.440;-2.054;2023-03-03T05:31:25;101526.09;;;3.78;70.26
77023;BME280;65952;51.440;-2.054;2023-03-03T05:33:52;101524.94;;;3.82;69.88
77023;BME280;65952;51.440;-2.054;2023-03-03T05:36:17;101530.25;;;3.82;69.69
77023;BME280;65952;51.440;-2.054;2023-03-03T05:38:43;101530.94;;;3.86;69.67
77023;BME280;65952;51.440;-2.054;2023-03-03T05:41:08;101527.69;;;3.81;69.29
77023;BME280;65952;51.440;-2.054;2023-03-03T05:43:34;101522.28;;;3.82;69.53
77023;BME280;65952;51.440;-2.054;2023-03-03T05:45:59;101523.22;;;3.67;69.24
77023;BME280;65952;51.440;-2.054;2023-03-03T05:48:25;101523.22;;;3.67;68.46
77023;BME280;65952;51.440;-2.054;2023-03-03T05:50:51;101529.97;;;3.58;68.40
77023;BME280;65952;51.440;-2.054;2023-03-03T05:53:16;101529.97;;;3.58;68.63
77023;BME280;65952;51.440;-2.054;2023-03-03T05:55:42;101532.91;;;3.68;68.64
77023;BME280;65952;51.440;-2.054;2023-03-03T05:58:07;101525.41;;;3.74;68.68
77023;BME280;65952;51.440;-2.054;2023-03-03T06:00:32;101527.72;;;3.66;68.20
77023;BME280;65952;51.440;-2.054;2023-03-03T06:02:58;101530.25;;;3.68;68.51
77023;BME280;65952;51.440;-2.054;2023-03-03T06:05:23;101527.50;;;3.69;68.16
77023;BME280;65952;51.440;-2.054;2023-03-03T06:07:49;101529.84;;;3.60;68.04
77023;BME280;65952;51.440;-2.054;2023-03-03T06:10:14;101521.53;;;3.66;68.39
77023;BME280;65952;51.440;-2.054;2023-03-03T06:12:39;101530.06;;;3.71;68.22
77023;BME280;65952;51.440;-2.054;2023-03-03T06:15:06;101530.94;;;3.71;68.07
77023;BME280;65952;51.440;-2.054;2023-03-03T06:17:32;101529.22;;;3.70;68.00
77023;BME280;65952;51.440;-2.054;2023-03-03T06:19:57;101533.75;;;3.68;67.97
77023;BME280;65952;51.440;-2.054;2023-03-03T06:22:23;101530.25;;;3.68;68.18
77023;BME280;65952;51.440;-2.054;2023-03-03T06:24:48;101525.22;;;3.63;67.92
77023;BME280;65952;51.440;-2.054;2023-03-03T06:27:14;101533.84;;;3.67;68.05
77023;BME280;65952;51.440;-2.054;2023-03-03T06:29:39;101536.16;;;3.58;68.11
77023;BME280;65952;51.440;-2.054;2023-03-03T06:32:04;101534.06;;;3.64;67.80
77023;BME280;65952;51.440;-2.054;2023-03-03T06:34:30;101529.78;;;3.61;68.02
77023;BME280;65952;51.440;-2.054;2023-03-03T06:36:55;101534.81;;;3.66;68.07
77023;BME280;65952;51.440;-2.054;2023-03-03T06:39:21;101531.31;;;3.65;68.10
77023;BME280;65952;51.440;-2.054;2023-03-03T06:41:46;101540.69;;;3.71;67.90
77023;BME280;65952;51.440;-2.054;2023-03-03T06:44:12;101536.25;;;3.71;68.06
77023;BME280;65952;51.440;-2.054;2023-03-03T06:46:37;101544.78;;;3.77;67.89
77023;BME280;65952;51.440;-2.054;2023-03-03T06:49:03;101539.47;;;3.77;67.88
77023;BME280;65952;51.440;-2.054;2023-03-03T06:51:34;101540.56;;;3.58;67.55
77023;BME280;65952;51.440;-2.054;2023-03-03T06:54:10;101548.09;;;3.66;67.47
77023;BME280;65952;51.440;-2.054;2023-03-03T06:56:37;101546.88;;;3.71;67.78
77023;BME280;65952;51.440;-2.054;2023-03-03T06:59:12;101548.75;;;3.69;67.85
77023;BME280;65952;51.440;-2.054;2023-03-03T07:01:38;101547.91;;;3.69;67.83
77023;BME280;65952;51.440;-2.054;2023-03-03T07:06:44;101557.66;;;3.68;67.16
77023;BME280;65952;51.440;-2.054;2023-03-03T07:09:28;101558.63;;;3.67;67.14
77023;BME280;65952;51.440;-2.054;2023-03-03T07:12:17;101557.28;;;3.74;66.68
77023;BME280;65952;51.440;-2.054;2023-03-03T07:14:45;101565.38;;;3.73;66.52
77023;BME280;65952;51.440;-2.054;2023-03-03T07:17:16;101565.09;;;3.78;66.65
77023;BME280;65952;51.440;-2.054;2023-03-03T07:19:43;101574.47;;;3.83;66.51
77023;BME280;65952;51.440;-2.054;2023-03-03T07:22:17;101573.38;;;3.87;66.92
77023;BME280;65952;51.440;-2.054;2023-03-03T07:24:45;101581.59;;;3.83;66.58
77023;BME280;65952;51.440;-2.054;2023-03-03T07:27:16;101579.78;;;3.83;66.33
77023;BME280;65952;51.440;-2.054;2023-03-03T07:29:47;101582.28;;;3.86;66.35
77023;BME280;65952;51.440;-2.054;2023-03-03T07:34:59;101589.31;;;3.87;66.34
77023;BME280;65952;51.440;-2.054;2023-03-03T07:37:27;101584.94;;;3.86;66.09
77023;BME280;65952;51.440;-2.054;2023-03-03T07:39:53;101589.78;;;3.94;65.88
77023;BME280;65952;51.440;-2.054;2023-03-03T07:44:54;101591.13;;;4.01;65.63
77023;BME280;65952;51.440;-2.054;2023-03-03T07:47:29;101598.03;;;4.04;65.63
77023;BME280;65952;51.440;-2.054;2023-03-03T07:49:56;101595.97;;;4.09;65.41
77023;BME280;65952;51.440;-2.054;2023-03-03T07:52:39;101593.41;;;4.07;65.70
77023;BME280;65952;51.440;-2.054;2023-03-03T07:55:33;101602.38;;;4.05;65.78
77023;BME280;65952;51.440;-2.054;2023-03-03T08:03:11;101611.22;;;4.20;65.42
77023;BME280;65952;51.440;-2.054;2023-03-03T08:05:41;101606.97;;;4.17;65.55
77023;BME280;65952;51.440;-2.054;2023-03-03T08:08:34;101611.72;;;4.27;65.64
77023;BME280;65952;51.440;-2.054;2023-03-03T08:11:01;101611.34;;;4.18;65.69
77023;BME280;65952;51.440;-2.054;2023-03-03T08:18:43;101620.34;;;4.45;65.20
77023;BME280;65952;51.440;-2.054;2023-03-03T08:21:13;101615.88;;;4.45;65.14
77023;BME280;65952;51.440;-2.054;2023-03-03T08:23:39;101624.44;;;4.50;65.12
77023;BME280;65952;51.440;-2.054;2023-03-03T08:26:05;101624.91;;;4.57;65.33
77023;BME280;65952;51.440;-2.054;2023-03-03T08:28:31;101626.63;;;4.58;64.65
77023;BME280;65952;51.440;-2.054;2023-03-03T08:30:56;101628.41;;;4.58;65.02
77023;BME280;65952;51.440;-2.054;2023-03-03T08:33:22;101627.28;;;4.62;64.25
77023;BME280;65952;51.440;-2.054;2023-03-03T08:35:48;101629.06;;;4.61;64.67
77023;BME280;65952;51.440;-2.054;2023-03-03T08:38:16;101634.38;;;4.61;64.56
77023;BME280;65952;51.440;-2.054;2023-03-03T08:40:42;101642.97;;;4.52;63.86
77023;BME280;65952;51.440;-2.054;2023-03-03T08:43:08;101645.31;;;4.56;64.39
77023;BME280;65952;51.440;-2.054;2023-03-03T08:45:34;101643.59;;;4.70;64.07
77023;BME280;65952;51.440;-2.054;2023-03-03T08:48:00;101646.94;;;4.59;63.99
77023;BME280;65952;51.440;-2.054;2023-03-03T08:50:28;101639.50;;;4.79;63.90
77023;BME280;65952;51.440;-2.054;2023-03-03T08:52:54;101636.56;;;4.83;63.32
77023;BME280;65952;51.440;-2.054;2023-03-03T08:55:20;101629.78;;;4.92;63.38
77023;BME280;65952;51.440;-2.054;2023-03-03T08:57:45;101641.66;;;4.86;63.51
77023;BME280;65952;51.440;-2.054;2023-03-03T09:00:13;101641.09;;;4.96;63.41
77023;BME280;65952;51.440;-2.054;2023-03-03T09:02:39;101638.78;;;5.04;62.73
77023;BME280;65952;51.440;-2.054;2023-03-03T09:05:05;101638.50;;;4.94;62.17
77023;BME280;65952;51.440;-2.054;2023-03-03T09:07:31;101640.94;;;4.84;62.66
77023;BME280;65952;51.440;-2.054;2023-03-03T09:09:57;101644.59;;;4.96;63.38
77023;BME280;65952;51.440;-2.054;2023-03-03T09:12:39;101645.63;;;5.08;62.86
77023;BME280;65952;51.440;-2.054;2023-03-03T09:17:40;101648.50;;;5.32;62.39
77023;BME280;65952;51.440;-2.054;2023-03-03T09:22:49;101652.91;;;5.19;61.94
77023;BME280;65952;51.440;-2.054;2023-03-03T09:27:46;101651.84;;;5.21;62.15
77023;BME280;65952;51.440;-2.054;2023-03-03T09:30:26;101649.91;;;4.96;61.58
77023;BME280;65952;51.440;-2.054;2023-03-03T09:32:56;101659.19;;;4.76;62.38
77023;BME280;65952;51.440;-2.054;2023-03-03T09:35:35;101651.84;;;4.80;62.29
77023;BME280;65952;51.440;-2.054;2023-03-03T09:40:50;101655.09;;;4.56;62.64
77023;BME280;65952;51.440;-2.054;2023-03-03T09:43:40;101654.81;;;4.61;63.00
77023;BME280;65952;51.440;-2.054;2023-03-03T10:08:10;101677.13;;;4.44;64.02
77023;BME280;65952;51.440;-2.054;2023-03-03T10:24:03;101683.69;;;4.52;63.11
77023;BME280;65952;51.440;-2.054;2023-03-03T10:35:14;101689.66;;;4.99;62.82
77023;BME280;65952;51.440;-2.054;2023-03-03T10:37:46;101684.69;;;5.08;61.84
77023;BME280;65952;51.440;-2.054;2023-03-03T10:45:58;101691.09;;;4.91;63.00
77023;BME280;65952;51.440;-2.054;2023-03-03T10:54:46;101687.06;;;5.12;63.23
77023;BME280;65952;51.440;-2.054;2023-03-03T11:00:23;101692.19;;;5.15;63.22
77023;BME280;65952;51.440;-2.054;2023-03-03T11:08:40;101698.00;;;5.08;64.04
77023;BME280;65952;51.440;-2.054;2023-03-03T11:13:46;101711.53;;;5.32;63.80
77023;BME280;65952;51.440;-2.054;2023-03-03T11:16:52;101701.09;;;5.29;63.49
77023;BME280;65952;51.440;-2.054;2023-03-03T11:30:03;101709.38;;;5.51;63.01
77023;BME280;65952;51.440;-2.054;2023-03-03T11:36:06;101711.09;;;5.52;61.52
77023;BME280;65952;51.440;-2.054;2023-03-03T11:39:02;101714.91;;;5.48;61.95
77023;BME280;65952;51.440;-2.054;2023-03-03T11:44:26;101711.50;;;5.46;61.86
77023;BME280;65952;51.440;-2.054;2023-03-03T11:49:37;101724.34;;;5.67;61.62
77023;BME280;65952;51.440;-2.054;2023-03-03T11:54:48;101714.63;;;5.93;60.72
77023;BME280;65952;51.440;-2.054;2023-03-03T11:57:23;101721.09;;;5.76;61.45
77023;BME280;65952;51.440;-2.054;2023-03-03T12:21:37;101713.69;;;5.94;59.98
77023;BME280;65952;51.440;-2.054;2023-03-03T12:27:05;101704.13;;;5.77;59.40
77023;BME280;65952;51.440;-2.054;2023-03-03T12:32:21;101706.38;;;5.83;60.27
77023;BME280;65952;51.440;-2.054;2023-03-03T12:35:05;101704.25;;;5.89;60.98
77023;BME280;65952;51.440;-2.054;2023-03-03T12:40:23;101689.19;;;6.02;60.06
77023;BME280;65952;51.440;-2.054;2023-03-03T12:45:40;101686.66;;;6.39;60.61
77023;BME280;65952;51.440;-2.054;2023-03-03T12:48:15;101686.56;;;6.28;60.06
77023;BME280;65952;51.440;-2.054;2023-03-03T12:50:52;101689.75;;;6.33;60.32
77023;BME280;65952;51.440;-2.054;2023-03-03T12:56:39;101691.78;;;6.16;60.61
77023;BME280;65952;51.440;-2.054;2023-03-03T13:05:01;101681.31;;;6.00;62.17
77023;BME280;65952;51.440;-2.054;2023-03-03T13:10:14;101680.78;;;6.08;62.00
77023;BME280;65952;51.440;-2.054;2023-03-03T13:15:29;101676.50;;;6.18;61.24
77023;BME280;65952;51.440;-2.054;2023-03-03T13:20:56;101671.06;;;6.59;60.37
77023;BME280;65952;51.440;-2.054;2023-03-03T13:23:42;101668.47;;;6.70;60.30
77023;BME280;65952;51.440;-2.054;2023-03-03T13:29:32;101669.03;;;6.62;60.37
77023;BME280;65952;51.440;-2.054;2023-03-03T13:32:03;101663.50;;;6.40;61.09
77023;BME280;65952;51.440;-2.054;2023-03-03T13:39:56;101669.13;;;5.96;62.53
77023;BME280;65952;51.440;-2.054;2023-03-03T13:42:35;101661.06;;;6.11;61.99
77023;BME280;65952;51.440;-2.054;2023-03-03T13:45:14;101662.97;;;6.09;60.96
77023;BME280;65952;51.440;-2.054;2023-03-03T13:51:10;101661.91;;;6.24;58.23
77023;BME280;65952;51.440;-2.054;2023-03-03T13:53:44;101663.63;;;6.38;59.38
77023;BME280;65952;51.440;-2.054;2023-03-03T13:56:27;101662.31;;;6.44;59.63
77023;BME280;65952;51.440;-2.054;2023-03-03T14:07:32;101660.44;;;6.20;59.68
77023;BME280;65952;51.440;-2.054;2023-03-03T14:10:10;101656.69;;;6.23;60.46
77023;BME280;65952;51.440;-2.054;2023-03-03T14:13:25;101652.84;;;6.14;60.83
77023;BME280;65952;51.440;-2.054;2023-03-03T14:15:57;101654.66;;;6.13;60.24
77023;BME280;65952;51.440;-2.054;2023-03-03T14:18:30;101657.22;;;6.28;60.47
77023;BME280;65952;51.440;-2.054;2023-03-03T14:22:02;101648.47;;;6.26;60.15
77023;BME280;65952;51.440;-2.054;2023-03-03T14:24:15;101649.53;;;6.36;58.89
77023;BME280;65952;51.440;-2.054;2023-03-03T14:26:52;101641.75;;;6.46;59.05
77023;BME280;65952;51.440;-2.054;2023-03-03T14:29:30;101640.13;;;6.17;59.42
77023;BME280;65952;51.440;-2.054;2023-03-03T14:31:58;101643.78;;;6.16;59.89
77023;BME280;65952;51.440;-2.054;2023-03-03T14:36:58;101640.75;;;5.82;60.91
77023;BME280;65952;51.440;-2.054;2023-03-03T14:39:35;101642.00;;;5.90;61.37
77023;BME280;65952;51.440;-2.054;2023-03-03T14:42:12;101644.38;;;5.94;61.58
77023;BME280;65952;51.440;-2.054;2023-03-03T14:49:37;101636.50;;;5.93;62.45
77023;BME280;65952;51.440;-2.054;2023-03-03T14:54:41;101625.72;;;5.81;62.43
77023;BME280;65952;51.440;-2.054;2023-03-03T15:05:24;101616.75;;;5.82;62.77
77023;BME280;65952;51.440;-2.054;2023-03-03T15:08:06;101614.78;;;5.99;62.60
77023;BME280;65952;51.440;-2.054;2023-03-03T15:10:39;101615.94;;;6.08;61.94
77023;BME280;65952;51.440;-2.054;2023-03-03T15:15:50;101606.94;;;5.96;61.31
77023;BME280;65952;51.440;-2.054;2023-03-03T15:18:16;101605.22;;;5.95;61.44
77023;BME280;65952;51.440;-2.054;2023-03-03T15:21:04;101603.53;;;5.94;61.49
77023;BME280;65952;51.440;-2.054;2023-03-03T15:23:55;101603.97;;;5.88;61.67
77023;BME280;65952;51.440;-2.054;2023-03-03T15:26:45;101602.88;;;5.77;62.48
77023;BME280;65952;51.440;-2.054;2023-03-03T15:34:59;101598.81;;;5.72;62.66
77023;BME280;65952;51.440;-2.054;2023-03-03T15:37:44;101600.97;;;5.66;62.84
77023;BME280;65952;51.440;-2.054;2023-03-03T15:40:19;101599.97;;;5.54;62.67
77023;BME280;65952;51.440;-2.054;2023-03-03T15:43:02;101599.53;;;5.48;62.40
77023;BME280;65952;51.440;-2.054;2023-03-03T15:56:32;101605.41;;;5.66;62.35
77023;BME280;65952;51.440;-2.054;2023-03-03T15:59:23;101603.63;;;5.66;61.78
77023;BME280;65952;51.440;-2.054;2023-03-03T16:02:22;101609.69;;;5.68;62.12
77023;BME280;65952;51.440;-2.054;2023-03-03T16:05:31;101607.22;;;5.65;61.66
77023;BME280;65952;51.440;-2.054;2023-03-03T16:08:03;101611.19;;;5.73;61.67
77023;BME280;65952;51.440;-2.054;2023-03-03T16:16:05;101615.22;;;5.52;61.71
77023;BME280;65952;51.440;-2.054;2023-03-03T16:21:14;101613.50;;;5.51;62.05
77023;BME280;65952;51.440;-2.054;2023-03-03T16:26:17;101620.19;;;5.17;63.09
77023;BME280;65952;51.440;-2.054;2023-03-03T16:29:17;101623.19;;;5.12;62.97
77023;BME280;65952;51.440;-2.054;2023-03-03T16:31:52;101619.91;;;5.21;63.26
77023;BME280;65952;51.440;-2.054;2023-03-03T16:42:29;101621.50;;;5.24;63.01
77023;BME280;65952;51.440;-2.054;2023-03-03T16:56:08;101619.38;;;5.29;63.10
77023;BME280;65952;51.440;-2.054;2023-03-03T16:58:47;101619.06;;;5.21;62.94
77023;BME280;65952;51.440;-2.054;2023-03-03T17:03:57;101625.13;;;5.23;63.32
77023;BME280;65952;51.440;-2.054;2023-03-03T17:06:28;101629.50;;;5.24;63.17
77023;BME280;65952;51.440;-2.054;2023-03-03T17:09:20;101627.69;;;5.25;63.17
77023;BME280;65952;51.440;-2.054;2023-03-03T17:14:34;101631.81;;;5.16;63.09
77023;BME280;65952;51.440;-2.054;2023-03-03T17:17:30;101638.81;;;5.17;63.37
77023;BME280;65952;51.440;-2.054;2023-03-03T17:20:06;101637.44;;;5.11;62.87
77023;BME280;65952;51.440;-2.054;2023-03-03T17:22:42;101642.53;;;5.14;63.17
77023;BME280;65952;51.440;-2.054;2023-03-03T17:33:17;101646.06;;;5.15;62.96
77023;BME280;65952;51.440;-2.054;2023-03-03T17:36:17;101649.31;;;5.05;63.29
77023;BME280;65952;51.440;-2.054;2023-03-03T17:44:10;101654.09;;;5.00;63.57
77023;BME280;65952;51.440;-2.054;2023-03-03T17:47:04;101657.91;;;4.96;63.63
77023;BME280;65952;51.440;-2.054;2023-03-03T17:54:53;101664.66;;;5.02;63.54
77023;BME280;65952;51.440;-2.054;2023-03-03T18:00:31;101666.84;;;4.95;63.40
77023;BME280;65952;51.440;-2.054;2023-03-03T18:05:50;101671.50;;;4.92;63.19
77023;BME280;65952;51.440;-2.054;2023-03-03T18:11:16;101665.88;;;4.96;63.45
77023;BME280;65952;51.440;-2.054;2023-03-03T18:17:32;101680.56;;;4.75;64.21
77023;BME280;65952;51.440;-2.054;2023-03-03T18:22:49;101681.72;;;4.70;64.45
77023;BME280;65952;51.440;-2.054;2023-03-03T18:25:50;101686.56;;;4.78;64.17
77023;BME280;65952;51.440;-2.054;2023-03-03T18:28:15;101687.66;;;4.88;63.71